sensor_id;sensor_type;location;lat;lon;timestamp;pressure;altitude;pressure_sealevel;temperature;humidity
73858;BME280;62195;55.030;73.278;2022-08-19T00:01:31;100850.31;;;9.13;73.88
73858;BME280;62195;55.030;73.278;2022-08-19T00:03:59;100852.03;;;9.14;74.35
73858;BME280;62195;55.030;73.278;2022-08-19T00:06:25;100850.31;;;9.13;74.27
73858;BME280;62195;55.030;73.278;2022-08-19T00:08:51;100857.31;;;9.13;74.59
73858;BME280;62195;55.030;73.278;2022-08-19T00:11:23;100857.41;;;9.09;74.19
73858;BME280;62195;55.030;73.278;2022-08-19T00:13:59;100861.00;;;9.07;74.39
73858;BME280;62195;55.030;73.278;2022-08-19T00:16:25;100861.81;;;9.07;74.48
73858;BME280;62195;55.030;73.278;2022-08-19T00:18:51;100859.16;;;9.09;75.11
73858;BME280;62195;55.030;73.278;2022-08-19T00:21:27;100862.75;;;9.06;74.17
73858;BME280;62195;55.030;73.278;2022-08-19T00:23:59;100874.84;;;9.10;74.45
73858;BME280;62195;55.030;73.278;2022-08-19T00:26:28;100868.69;;;9.12;74.60
73858;BME280;62195;55.030;73.278;2022-08-19T00:29:05;100870.31;;;9.16;74.06
73858;BME280;62195;55.030;73.278;2022-08-19T00:31:36;100864.09;;;9.20;74.63
73858;BME280;62195;55.030;73.278;2022-08-19T00:34:02;100864.91;;;9.22;74.13
73858;BME280;62195;55.030;73.278;2022-08-19T00:36:28;100866.59;;;9.23;74.84
73858;BME280;62195;55.030;73.278;2022-08-19T00:38:55;100863.03;;;9.26;74.96
73858;BME280;62195;55.030;73.278;2022-08-19T00:41:21;100864.69;;;9.28;74.52
73858;BME280;62195;55.030;73.278;2022-08-19T00:43:59;100866.38;;;9.31;74.91
73858;BME280;62195;55.030;73.278;2022-08-19T00:46:37;100869.75;;;9.34;74.79
73858;BME280;62195;55.030;73.278;2022-08-19T00:49:06;100868.78;;;9.37;74.79
73858;BME280;62195;55.030;73.278;2022-08-19T00:51:39;100871.38;;;9.39;74.26
73858;BME280;62195;55.030;73.278;2022-08-19T00:54:06;100870.50;;;9.38;74.70
73858;BME280;62195;55.030;73.278;2022-08-19T00:56:32;100867.03;;;9.38;74.56
73858;BME280;62195;55.030;73.278;2022-08-19T00:59:03;100873.19;;;9.36;74.75
73858;BME280;62195;55.030;73.278;2022-08-19T01:01:41;100862.72;;;9.36;75.02
73858;BME280;62195;55.030;73.278;2022-08-19T01:04:07;100858.28;;;9.39;74.06
73858;BME280;62195;55.030;73.278;2022-08-19T01:06:34;100859.19;;;9.38;75.01
73858;BME280;62195;55.030;73.278;2022-08-19T01:09:01;100858.28;;;9.39;74.16
73858;BME280;62195;55.030;73.278;2022-08-19T01:11:35;100856.41;;;9.42;74.95
73858;BME280;62195;55.030;73.278;2022-08-19T01:14:02;100845.84;;;9.45;74.88
73858;BME280;62195;55.030;73.278;2022-08-19T01:16:28;100848.38;;;9.47;74.14
73858;BME280;62195;55.030;73.278;2022-08-19T01:19:18;100845.69;;;9.50;74.34
73858;BME280;62195;55.030;73.278;2022-08-19T01:22:10;100845.56;;;9.53;74.85
73858;BME280;62195;55.030;73.278;2022-08-19T01:24:37;100849.84;;;9.56;74.83
73858;BME280;62195;55.030;73.278;2022-08-19T01:27:04;100855.03;;;9.57;74.12
73858;BME280;62195;55.030;73.278;2022-08-19T01:29:33;100837.59;;;9.56;74.73
73858;BME280;62195;55.030;73.278;2022-08-19T01:32:00;100848.88;;;9.58;74.45
73858;BME280;62195;55.030;73.278;2022-08-19T01:34:26;100848.00;;;9.59;74.49
73858;BME280;62195;55.030;73.278;2022-08-19T01:36:57;100844.47;;;9.60;74.18
73858;BME280;62195;55.030;73.278;2022-08-19T01:39:24;100847.88;;;9.62;74.84
73858;BME280;62195;55.030;73.278;2022-08-19T01:41:51;100846.06;;;9.64;74.90
73858;BME280;62195;55.030;73.278;2022-08-19T01:44:19;100846.06;;;9.64;74.35
73858;BME280;62195;55.030;73.278;2022-08-19T01:46:49;100846.03;;;9.66;74.01
73858;BME280;62195;55.030;73.278;2022-08-19T01:49:17;100846.06;;;9.64;75.28
73858;BME280;62195;55.030;73.278;2022-08-19T01:51:45;100848.69;;;9.64;75.15
73858;BME280;62195;55.030;73.278;2022-08-19T01:54:12;100846.22;;;9.60;75.05
73858;BME280;62195;55.030;73.278;2022-08-19T01:56:38;100848.75;;;9.63;74.06
73858;BME280;62195;55.030;73.278;2022-08-19T01:59:08;100846.13;;;9.63;74.50
73858;BME280;62195;55.030;73.278;2022-08-19T02:01:36;100842.66;;;9.62;74.79
73858;BME280;62195;55.030;73.278;2022-08-19T02:04:02;100841.94;;;9.57;74.68
73858;BME280;62195;55.030;73.278;2022-08-19T02:06:28;100844.56;;;9.57;75.34
73858;BME280;62195;55.030;73.278;2022-08-19T02:08:55;100836.69;;;9.57;75.23
73858;BME280;62195;55.030;73.278;2022-08-19T02:11:22;100842.84;;;9.56;75.29
73858;BME280;62195;55.030;73.278;2022-08-19T02:13:49;100841.97;;;9.56;75.54
73858;BME280;62195;55.030;73.278;2022-08-19T02:16:16;100844.56;;;9.57;75.08
73858;BME280;62195;55.030;73.278;2022-08-19T02:18:42;100836.59;;;9.60;75.33
73858;BME280;62195;55.030;73.278;2022-08-19T02:21:08;100839.13;;;9.63;74.94
73858;BME280;62195;55.030;73.278;2022-08-19T02:23:34;100838.28;;;9.63;74.29
73858;BME280;62195;55.030;73.278;2022-08-19T02:26:00;100845.97;;;9.68;75.27
73858;BME280;62195;55.030;73.278;2022-08-19T02:28:36;100841.47;;;9.71;73.98
73858;BME280;62195;55.030;73.278;2022-08-19T02:31:10;100845.78;;;9.74;73.79
73858;BME280;62195;55.030;73.278;2022-08-19T02:33:36;100840.53;;;9.74;75.08
73858;BME280;62195;55.030;73.278;2022-08-19T02:36:03;100856.25;;;9.74;74.61
73858;BME280;62195;55.030;73.278;2022-08-19T02:38:29;100853.47;;;9.79;74.05
73858;BME280;62195;55.030;73.278;2022-08-19T02:41:08;100859.53;;;9.81;74.82
73858;BME280;62195;55.030;73.278;2022-08-19T02:43:36;100860.34;;;9.83;74.28
73858;BME280;62195;55.030;73.278;2022-08-19T02:48:41;100858.38;;;9.89;74.39
73858;BME280;62195;55.030;73.278;2022-08-19T02:51:07;100849.63;;;9.89;73.94
73858;BME280;62195;55.030;73.278;2022-08-19T02:53:34;100855.63;;;9.93;73.54
73858;BME280;62195;55.030;73.278;2022-08-19T02:56:00;100855.53;;;9.96;74.61
73858;BME280;62195;55.030;73.278;2022-08-19T02:58:26;100856.31;;;9.98;74.39
73858;BME280;62195;55.030;73.278;2022-08-19T03:01:02;100852.81;;;9.99;74.39
73858;BME280;62195;55.030;73.278;2022-08-19T03:03:29;100853.56;;;10.02;73.30
73858;BME280;62195;55.030;73.278;2022-08-19T03:06:05;100856.94;;;10.06;73.60
73858;BME280;62195;55.030;73.278;2022-08-19T03:08:32;100855.09;;;10.08;74.35
73858;BME280;62195;55.030;73.278;2022-08-19T03:11:18;100847.94;;;10.13;72.82
73858;BME280;62195;55.030;73.278;2022-08-19T03:13:45;100854.88;;;10.14;72.83
73858;BME280;62195;55.030;73.278;2022-08-19T03:16:11;100853.97;;;10.15;72.53
73858;BME280;62195;55.030;73.278;2022-08-19T03:18:42;100862.63;;;10.19;72.86
73858;BME280;62195;55.030;73.278;2022-08-19T03:21:22;100856.41;;;10.22;73.39
73858;BME280;62195;55.030;73.278;2022-08-19T03:23:49;100855.59;;;10.20;74.01
73858;BME280;62195;55.030;73.278;2022-08-19T03:26:15;100855.38;;;10.26;72.45
73858;BME280;62195;55.030;73.278;2022-08-19T03:28:42;100852.66;;;10.29;72.71
73858;BME280;62195;55.030;73.278;2022-08-19T03:31:11;100864.81;;;10.32;73.14
73858;BME280;62195;55.030;73.278;2022-08-19T03:33:42;100861.22;;;10.34;72.08
73858;BME280;62195;55.030;73.278;2022-08-19T03:36:13;100858.59;;;10.34;73.16
73858;BME280;62195;55.030;73.278;2022-08-19T03:38:40;100861.22;;;10.34;72.11
73858;BME280;62195;55.030;73.278;2022-08-19T03:41:13;100851.50;;;10.36;73.45
73858;BME280;62195;55.030;73.278;2022-08-19T03:43:41;100856.50;;;10.44;72.06
73858;BME280;62195;55.030;73.278;2022-08-19T03:46:08;100850.31;;;10.47;73.29
73858;BME280;62195;55.030;73.278;2022-08-19T03:48:35;100856.34;;;10.49;72.39
73858;BME280;62195;55.030;73.278;2022-08-19T03:51:02;100855.53;;;10.47;72.20
73858;BME280;62195;55.030;73.278;2022-08-19T03:53:29;100859.09;;;10.46;72.53
73858;BME280;62195;55.030;73.278;2022-08-19T03:55:55;100854.69;;;10.46;73.28
73858;BME280;62195;55.030;73.278;2022-08-19T03:58:22;100852.94;;;10.47;71.66
73858;BME280;62195;55.030;73.278;2022-08-19T04:00:53;100853.78;;;10.47;72.68
73858;BME280;62195;55.030;73.278;2022-08-19T04:03:19;100851.78;;;10.54;72.01
73858;BME280;62195;55.030;73.278;2022-08-19T04:05:53;100841.88;;;10.62;72.27
73858;BME280;62195;55.030;73.278;2022-08-19T04:08:19;100844.25;;;10.68;71.32
73858;BME280;62195;55.030;73.278;2022-08-19T04:10:47;100835.22;;;10.76;71.47
73858;BME280;62195;55.030;73.278;2022-08-19T04:13:13;100850.59;;;10.87;71.63
73858;BME280;62195;55.030;73.278;2022-08-19T04:15:40;100844.91;;;10.97;72.14
73858;BME280;62195;55.030;73.278;2022-08-19T04:18:08;100837.56;;;11.06;70.27
73858;BME280;62195;55.030;73.278;2022-08-19T04:20:43;100838.09;;;11.16;71.89
73858;BME280;62195;55.030;73.278;2022-08-19T04:23:13;100825.50;;;11.24;71.08
73858;BME280;62195;55.030;73.278;2022-08-19T04:25:43;100833.19;;;11.29;70.98
73858;BME280;62195;55.030;73.278;2022-08-19T04:28:20;100836.38;;;11.37;71.47
73858;BME280;62195;55.030;73.278;2022-08-19T04:30:50;100836.22;;;11.40;71.42
73858;BME280;62195;55.030;73.278;2022-08-19T04:33:17;100838.50;;;11.49;71.28
73858;BME280;62195;55.030;73.278;2022-08-19T04:35:45;100835.75;;;11.53;70.40
73858;BME280;62195;55.030;73.278;2022-08-19T04:38:18;100836.41;;;11.58;69.30
73858;BME280;62195;55.030;73.278;2022-08-19T04:40:45;100847.59;;;11.63;69.73
73858;BME280;62195;55.030;73.278;2022-08-19T04:43:30;100845.63;;;11.68;69.23
73858;BME280;62195;55.030;73.278;2022-08-19T04:45:57;100847.19;;;11.72;69.66
73858;BME280;62195;55.030;73.278;2022-08-19T04:48:23;100837.34;;;11.77;70.39
73858;BME280;62195;55.030;73.278;2022-08-19T04:51:05;100840.38;;;11.89;68.66
73858;BME280;62195;55.030;73.278;2022-08-19T04:53:42;100827.63;;;12.00;69.09
73858;BME280;62195;55.030;73.278;2022-08-19T04:56:12;100836.31;;;12.23;68.64
73858;BME280;62195;55.030;73.278;2022-08-19T04:58:39;100831.78;;;12.46;67.63
73858;BME280;62195;55.030;73.278;2022-08-19T05:01:07;100827.53;;;12.63;66.60
73858;BME280;62195;55.030;73.278;2022-08-19T05:03:35;100832.25;;;12.75;67.03
73858;BME280;62195;55.030;73.278;2022-08-19T05:06:08;100821.41;;;12.81;66.67
73858;BME280;62195;55.030;73.278;2022-08-19T05:08:34;100821.41;;;12.81;66.50
73858;BME280;62195;55.030;73.278;2022-08-19T05:11:09;100823.97;;;12.83;66.57
73858;BME280;62195;55.030;73.278;2022-08-19T05:13:36;100820.22;;;12.89;66.47
73858;BME280;62195;55.030;73.278;2022-08-19T05:16:02;100813.44;;;12.83;64.80
73858;BME280;62195;55.030;73.278;2022-08-19T05:18:33;100814.53;;;12.79;66.33
73858;BME280;62195;55.030;73.278;2022-08-19T05:21:18;100812.16;;;12.92;65.66
73858;BME280;62195;55.030;73.278;2022-08-19T05:24:13;100807.16;;;13.05;65.51
73858;BME280;62195;55.030;73.278;2022-08-19T05:26:40;100810.19;;;13.15;65.08
73858;BME280;62195;55.030;73.278;2022-08-19T05:29:14;100810.53;;;13.26;64.18
73858;BME280;62195;55.030;73.278;2022-08-19T05:31:40;100810.53;;;13.26;64.09
73858;BME280;62195;55.030;73.278;2022-08-19T05:34:09;100802.63;;;13.26;63.96
73858;BME280;62195;55.030;73.278;2022-08-19T05:36:46;100796.66;;;13.22;64.42
73858;BME280;62195;55.030;73.278;2022-08-19T05:39:15;100798.13;;;13.28;63.52
73858;BME280;62195;55.030;73.278;2022-08-19T05:41:44;100796.13;;;13.33;63.12
73858;BME280;62195;55.030;73.278;2022-08-19T05:44:17;100799.66;;;13.32;63.35
73858;BME280;62195;55.030;73.278;2022-08-19T05:46:47;100789.00;;;13.35;63.18
73858;BME280;62195;55.030;73.278;2022-08-19T05:49:23;100787.91;;;13.40;62.71
73858;BME280;62195;55.030;73.278;2022-08-19T05:51:51;100785.09;;;13.43;63.32
73858;BME280;62195;55.030;73.278;2022-08-19T05:54:17;100788.41;;;13.48;63.38
73858;BME280;62195;55.030;73.278;2022-08-19T05:56:43;100781.28;;;13.50;63.44
73858;BME280;62195;55.030;73.278;2022-08-19T05:59:09;100784.69;;;13.52;63.41
73858;BME280;62195;55.030;73.278;2022-08-19T06:01:47;100777.22;;;13.60;63.29
73858;BME280;62195;55.030;73.278;2022-08-19T06:04:16;100779.25;;;13.73;62.56
73858;BME280;62195;55.030;73.278;2022-08-19T06:06:44;100777.69;;;13.86;62.82
73858;BME280;62195;55.030;73.278;2022-08-19T06:09:10;100776.59;;;13.90;62.97
73858;BME280;62195;55.030;73.278;2022-08-19T06:11:44;100776.59;;;13.90;62.34
73858;BME280;62195;55.030;73.278;2022-08-19T06:14:24;100772.88;;;13.77;62.53
73858;BME280;62195;55.030;73.278;2022-08-19T06:16:51;100767.78;;;13.74;62.50
73858;BME280;62195;55.030;73.278;2022-08-19T06:19:18;100771.63;;;13.84;62.23
73858;BME280;62195;55.030;73.278;2022-08-19T06:21:55;100763.81;;;13.83;61.80
73858;BME280;62195;55.030;73.278;2022-08-19T06:24:22;100753.78;;;13.89;62.09
73858;BME280;62195;55.030;73.278;2022-08-19T06:26:50;100757.00;;;13.95;62.59
73858;BME280;62195;55.030;73.278;2022-08-19T06:29:19;100761.88;;;14.02;62.32
73858;BME280;62195;55.030;73.278;2022-08-19T06:31:47;100753.88;;;14.04;61.94
73858;BME280;62195;55.030;73.278;2022-08-19T06:34:20;100743.06;;;14.09;61.95
73858;BME280;62195;55.030;73.278;2022-08-19T06:36:49;100749.06;;;14.12;62.24
73858;BME280;62195;55.030;73.278;2022-08-19T06:39:25;100709.94;;;13.87;61.54
73858;BME280;62195;55.030;73.278;2022-08-19T06:41:54;100747.25;;;14.13;61.94
73858;BME280;62195;55.030;73.278;2022-08-19T06:44:22;100748.28;;;14.10;62.33
73858;BME280;62195;55.030;73.278;2022-08-19T06:46:49;100755.09;;;13.98;62.76
73858;BME280;62195;55.030;73.278;2022-08-19T06:49:19;100756.50;;;13.88;62.99
73858;BME280;62195;55.030;73.278;2022-08-19T06:54:28;100742.31;;;13.55;63.54
73858;BME280;62195;55.030;73.278;2022-08-19T06:57:01;100748.91;;;13.46;63.25
73858;BME280;62195;55.030;73.278;2022-08-19T06:59:27;100747.34;;;13.42;63.98
73858;BME280;62195;55.030;73.278;2022-08-19T07:01:54;100738.63;;;13.40;64.00
73858;BME280;62195;55.030;73.278;2022-08-19T07:04:22;100741.44;;;13.37;64.25
73858;BME280;62195;55.030;73.278;2022-08-19T07:06:49;100744.22;;;13.34;64.59
73858;BME280;62195;55.030;73.278;2022-08-19T07:09:16;100744.53;;;13.28;64.20
73858;BME280;62195;55.030;73.278;2022-08-19T07:11:48;100745.53;;;13.25;64.46
73858;BME280;62195;55.030;73.278;2022-08-19T07:14:20;100740.44;;;13.22;64.84
73858;BME280;62195;55.030;73.278;2022-08-19T07:16:47;100748.41;;;13.20;64.88
73858;BME280;62195;55.030;73.278;2022-08-19T07:19:14;100748.78;;;13.13;65.25
73858;BME280;62195;55.030;73.278;2022-08-19T07:21:46;100745.84;;;13.01;65.44
73858;BME280;62195;55.030;73.278;2022-08-19T07:24:13;100747.84;;;12.96;65.78
73858;BME280;62195;55.030;73.278;2022-08-19T07:26:40;100750.59;;;12.93;66.17
73858;BME280;62195;55.030;73.278;2022-08-19T07:29:06;100745.28;;;12.94;65.87
73858;BME280;62195;55.030;73.278;2022-08-19T07:31:42;100740.69;;;12.98;66.31
73858;BME280;62195;55.030;73.278;2022-08-19T07:34:09;100750.34;;;12.99;66.01
73858;BME280;62195;55.030;73.278;2022-08-19T07:36:43;100746.91;;;12.97;66.23
73858;BME280;62195;55.030;73.278;2022-08-19T07:39:10;100757.44;;;12.97;66.10
73858;BME280;62195;55.030;73.278;2022-08-19T07:41:37;100755.75;;;12.96;66.04
73858;BME280;62195;55.030;73.278;2022-08-19T07:44:09;100743.50;;;12.95;65.85
73858;BME280;62195;55.030;73.278;2022-08-19T07:46:37;100753.09;;;12.96;65.59
73858;BME280;62195;55.030;73.278;2022-08-19T07:49:03;100752.19;;;12.97;65.64
73858;BME280;62195;55.030;73.278;2022-08-19T07:51:35;100742.50;;;12.97;65.85
73858;BME280;62195;55.030;73.278;2022-08-19T07:54:01;100748.47;;;13.01;65.83
73858;BME280;62195;55.030;73.278;2022-08-19T07:56:27;100742.91;;;13.07;65.66
73858;BME280;62195;55.030;73.278;2022-08-19T07:58:53;100751.44;;;13.13;65.86
73858;BME280;62195;55.030;73.278;2022-08-19T08:01:26;100742.28;;;13.20;66.53
73858;BME280;62195;55.030;73.278;2022-08-19T08:03:54;100738.44;;;13.27;66.00
73858;BME280;62195;55.030;73.278;2022-08-19T08:06:39;100734.56;;;13.34;65.56
73858;BME280;62195;55.030;73.278;2022-08-19T08:09:33;100733.16;;;13.45;65.53
73858;BME280;62195;55.030;73.278;2022-08-19T08:12:00;100730.38;;;13.48;65.25
73858;BME280;62195;55.030;73.278;2022-08-19T08:14:35;100733.09;;;13.46;65.46
73858;BME280;62195;55.030;73.278;2022-08-19T08:17:07;100737.28;;;13.50;65.31
73858;BME280;62195;55.030;73.278;2022-08-19T08:19:34;100730.94;;;13.55;65.82
73858;BME280;62195;55.030;73.278;2022-08-19T08:22:01;100735.03;;;13.60;65.46
73858;BME280;62195;55.030;73.278;2022-08-19T08:24:37;100735.56;;;13.67;65.96
73858;BME280;62195;55.030;73.278;2022-08-19T08:27:08;100729.28;;;13.70;65.51
73858;BME280;62195;55.030;73.278;2022-08-19T08:29:34;100724.06;;;13.68;66.29
73858;BME280;62195;55.030;73.278;2022-08-19T08:32:07;100720.75;;;13.64;65.55
73858;BME280;62195;55.030;73.278;2022-08-19T08:34:35;100727.03;;;13.62;65.76
73858;BME280;62195;55.030;73.278;2022-08-19T08:37:08;100725.47;;;13.58;65.90
73858;BME280;62195;55.030;73.278;2022-08-19T08:39:37;100723.63;;;13.60;66.49
73858;BME280;62195;55.030;73.278;2022-08-19T08:47:18;100722.91;;;13.74;66.22
73858;BME280;62195;55.030;73.278;2022-08-19T08:52:20;100712.09;;;13.78;66.65
73858;BME280;62195;55.030;73.278;2022-08-19T08:54:49;100709.22;;;13.83;66.74
73858;BME280;62195;55.030;73.278;2022-08-19T08:59:57;100707.03;;;13.91;66.67
73858;BME280;62195;55.030;73.278;2022-08-19T09:02:26;100709.69;;;13.91;66.27
73858;BME280;62195;55.030;73.278;2022-08-19T09:04:53;100699.13;;;13.91;66.73
73858;BME280;62195;55.030;73.278;2022-08-19T09:09:49;100709.94;;;13.87;66.79
73858;BME280;62195;55.030;73.278;2022-08-19T09:15:12;100709.94;;;13.87;67.23
73858;BME280;62195;55.030;73.278;2022-08-19T09:17:39;100705.66;;;13.84;67.54
73858;BME280;62195;55.030;73.278;2022-08-19T09:22:44;100704.25;;;13.77;67.92
73858;BME280;62195;55.030;73.278;2022-08-19T09:25:12;100702.50;;;13.77;67.91
73858;BME280;62195;55.030;73.278;2022-08-19T09:27:46;100693.72;;;13.77;68.20
73858;BME280;62195;55.030;73.278;2022-08-19T09:30:15;100697.13;;;13.79;68.06
73858;BME280;62195;55.030;73.278;2022-08-19T09:32:42;100697.28;;;13.76;68.12
73858;BME280;62195;55.030;73.278;2022-08-19T09:35:09;100692.19;;;13.73;68.43
73858;BME280;62195;55.030;73.278;2022-08-19T09:37:35;100694.97;;;13.70;68.40
73858;BME280;62195;55.030;73.278;2022-08-19T09:40:10;100694.38;;;13.64;68.54
73858;BME280;62195;55.030;73.278;2022-08-19T09:42:37;100696.47;;;13.58;68.96
73858;BME280;62195;55.030;73.278;2022-08-19T09:45:08;100695.00;;;13.52;69.05
73858;BME280;62195;55.030;73.278;2022-08-19T09:47:34;100690.81;;;13.48;69.36
73858;BME280;62195;55.030;73.278;2022-08-19T09:50:07;100699.00;;;13.42;70.02
73858;BME280;62195;55.030;73.278;2022-08-19T09:52:33;100692.34;;;13.34;70.00
73858;BME280;62195;55.030;73.278;2022-08-19T09:55:05;100694.31;;;13.31;69.92
73858;BME280;62195;55.030;73.278;2022-08-19T09:57:32;100688.47;;;13.24;71.02
73858;BME280;62195;55.030;73.278;2022-08-19T09:59:57;100681.66;;;13.20;71.73
73858;BME280;62195;55.030;73.278;2022-08-19T10:02:23;100685.41;;;13.16;70.97
73858;BME280;62195;55.030;73.278;2022-08-19T10:04:50;100679.41;;;13.12;71.10
73858;BME280;62195;55.030;73.278;2022-08-19T10:07:35;100689.09;;;13.11;71.74
73858;BME280;62195;55.030;73.278;2022-08-19T10:10:03;100690.19;;;13.07;72.58
73858;BME280;62195;55.030;73.278;2022-08-19T10:12:29;100686.91;;;13.02;73.33
73858;BME280;62195;55.030;73.278;2022-08-19T10:14:55;100683.91;;;12.92;74.04
73858;BME280;62195;55.030;73.278;2022-08-19T10:17:23;100689.69;;;12.81;74.48
73858;BME280;62195;55.030;73.278;2022-08-19T10:19:51;100684.88;;;12.72;75.68
73858;BME280;62195;55.030;73.278;2022-08-19T10:22:26;100687.19;;;12.61;76.97
73858;BME280;62195;55.030;73.278;2022-08-19T10:24:53;100693.69;;;12.53;75.93
73858;BME280;62195;55.030;73.278;2022-08-19T10:27:19;100691.25;;;12.49;77.02
73858;BME280;62195;55.030;73.278;2022-08-19T10:29:45;100689.75;;;12.43;79.35
73858;BME280;62195;55.030;73.278;2022-08-19T10:32:11;100691.06;;;12.34;79.29
73858;BME280;62195;55.030;73.278;2022-08-19T10:34:37;100687.78;;;12.29;79.01
73858;BME280;62195;55.030;73.278;2022-08-19T10:37:04;100683.63;;;12.23;78.41
73858;BME280;62195;55.030;73.278;2022-08-19T10:39:37;100679.59;;;12.16;78.92
73858;BME280;62195;55.030;73.278;2022-08-19T10:42:04;100682.34;;;12.13;81.90
73858;BME280;62195;55.030;73.278;2022-08-19T10:44:31;100679.94;;;12.08;81.96
73858;BME280;62195;55.030;73.278;2022-08-19T10:46:57;100674.81;;;12.05;81.74
73858;BME280;62195;55.030;73.278;2022-08-19T10:49:24;100679.06;;;12.08;81.49
73858;BME280;62195;55.030;73.278;2022-08-19T10:51:50;100674.56;;;12.11;81.37
73858;BME280;62195;55.030;73.278;2022-08-19T10:54:44;100683.16;;;12.15;80.70
73858;BME280;62195;55.030;73.278;2022-08-19T10:57:37;100684.78;;;12.17;81.63
73858;BME280;62195;55.030;73.278;2022-08-19T11:00:03;100677.53;;;12.23;81.52
73858;BME280;62195;55.030;73.278;2022-08-19T11:02:39;100687.78;;;12.29;80.75
73858;BME280;62195;55.030;73.278;2022-08-19T11:05:07;100678.78;;;12.33;80.89
73858;BME280;62195;55.030;73.278;2022-08-19T11:07:37;100679.53;;;12.37;81.53
73858;BME280;62195;55.030;73.278;2022-08-19T11:10:03;100674.97;;;12.40;81.80
73858;BME280;62195;55.030;73.278;2022-08-19T11:12:29;100678.22;;;12.46;80.97
73858;BME280;62195;55.030;73.278;2022-08-19T11:14:59;100672.59;;;12.53;80.64
73858;BME280;62195;55.030;73.278;2022-08-19T11:17:25;100675.84;;;12.58;80.64
73858;BME280;62195;55.030;73.278;2022-08-19T11:19:51;100674.00;;;12.61;80.99
73858;BME280;62195;55.030;73.278;2022-08-19T11:22:17;100680.75;;;12.66;80.74
73858;BME280;62195;55.030;73.278;2022-08-19T11:24:43;100687.00;;;12.64;82.15
73858;BME280;62195;55.030;73.278;2022-08-19T11:27:10;100679.09;;;12.64;81.46
73858;BME280;62195;55.030;73.278;2022-08-19T11:29:39;100673.78;;;12.65;81.36
73858;BME280;62195;55.030;73.278;2022-08-19T11:32:07;100685.00;;;12.69;81.49
73858;BME280;62195;55.030;73.278;2022-08-19T11:34:40;100690.28;;;12.69;81.30
73858;BME280;62195;55.030;73.278;2022-08-19T11:37:06;100678.97;;;12.67;80.70
73858;BME280;62195;55.030;73.278;2022-08-19T11:39:34;100673.00;;;12.63;81.16
73858;BME280;62195;55.030;73.278;2022-08-19T11:42:02;100674.78;;;12.63;81.32
73858;BME280;62195;55.030;73.278;2022-08-19T11:44:54;100673.22;;;12.58;81.73
73858;BME280;62195;55.030;73.278;2022-08-19T11:47:20;100675.25;;;12.53;82.21
73858;BME280;62195;55.030;73.278;2022-08-19T11:49:55;100673.50;;;12.52;81.92
73858;BME280;62195;55.030;73.278;2022-08-19T11:52:22;100685.69;;;12.55;82.13
73858;BME280;62195;55.030;73.278;2022-08-19T11:54:58;100673.44;;;12.54;81.46
73858;BME280;62195;55.030;73.278;2022-08-19T11:57:24;100675.25;;;12.53;82.64
73858;BME280;62195;55.030;73.278;2022-08-19T11:59:51;100675.50;;;12.47;82.87
73858;BME280;62195;55.030;73.278;2022-08-19T12:02:18;100673.97;;;12.43;82.63
73858;BME280;62195;55.030;73.278;2022-08-19T12:04:44;100679.38;;;12.40;83.16
73858;BME280;62195;55.030;73.278;2022-08-19T12:07:10;100677.03;;;12.34;83.71
73858;BME280;62195;55.030;73.278;2022-08-19T12:09:36;100677.31;;;12.27;83.88
73858;BME280;62195;55.030;73.278;2022-08-19T12:12:03;100674.69;;;12.27;83.98
73858;BME280;62195;55.030;73.278;2022-08-19T12:14:30;100673.91;;;12.25;83.95
73858;BME280;62195;55.030;73.278;2022-08-19T12:16:57;100674.81;;;12.24;84.65
73858;BME280;62195;55.030;73.278;2022-08-19T12:19:23;100672.28;;;12.23;83.84
73858;BME280;62195;55.030;73.278;2022-08-19T12:21:50;100673.09;;;12.23;84.15
73858;BME280;62195;55.030;73.278;2022-08-19T12:24:17;100666.03;;;12.25;84.12
73858;BME280;62195;55.030;73.278;2022-08-19T12:26:48;100672.81;;;12.29;83.77
73858;BME280;62195;55.030;73.278;2022-08-19T12:29:15;100669.84;;;12.37;83.79
73858;BME280;62195;55.030;73.278;2022-08-19T12:31:40;100661.56;;;12.45;84.33
73858;BME280;62195;55.030;73.278;2022-08-19T12:34:06;100664.84;;;12.50;83.27
73858;BME280;62195;55.030;73.278;2022-08-19T12:36:32;100673.50;;;12.52;83.15
73858;BME280;62195;55.030;73.278;2022-08-19T12:38:59;100653.94;;;12.58;83.20
73858;BME280;62195;55.030;73.278;2022-08-19T12:41:25;100657.41;;;12.58;84.04
73858;BME280;62195;55.030;73.278;2022-08-19T12:43:56;100661.84;;;12.58;83.89
73858;BME280;62195;55.030;73.278;2022-08-19T12:46:29;100652.88;;;12.62;84.33
73858;BME280;62195;55.030;73.278;2022-08-19T12:48:57;100656.97;;;12.68;84.17
73858;BME280;62195;55.030;73.278;2022-08-19T12:51:23;100653.19;;;12.74;83.78
73858;BME280;62195;55.030;73.278;2022-08-19T12:53:50;100653.97;;;12.76;83.78
73858;BME280;62195;55.030;73.278;2022-08-19T12:56:26;100645.19;;;12.75;84.24
73858;BME280;62195;55.030;73.278;2022-08-19T12:58:52;100652.34;;;12.73;84.35
73858;BME280;62195;55.030;73.278;2022-08-19T13:01:18;100650.63;;;12.72;83.74
73858;BME280;62195;55.030;73.278;2022-08-19T13:03:46;100648.13;;;12.69;84.49
73858;BME280;62195;55.030;73.278;2022-08-19T13:06:13;100656.19;;;12.66;84.79
73858;BME280;62195;55.030;73.278;2022-08-19T13:08:40;100649.31;;;12.63;84.93
73858;BME280;62195;55.030;73.278;2022-08-19T13:11:12;100649.50;;;12.58;84.26
73858;BME280;62195;55.030;73.278;2022-08-19T13:13:45;100649.03;;;12.50;84.95
73858;BME280;62195;55.030;73.278;2022-08-19T13:16:15;100642.50;;;12.40;85.01
73858;BME280;62195;55.030;73.278;2022-08-19T13:18:41;100644.50;;;12.35;85.48